Maria — SV7156 — position and weather

sailwx.info

Track history (hours):
 
Tides and Currents Weather Stations Pressure Air Temp Water Temp Dewpoint Dewpoint Depression Visibility Wind Speed Wind Dir Waves Ship Positions

Maria

Last reported at 2017-May-26 16:30 UTC. Time now 2017-May-26 16:53 UTC.
Position N 37°57' E 023°35'.

Length 74 m; draft 4.5 m.

Type: Ship. MMSI: 237493000.

Date/timePositionNaut miles runAvg speedWind from/ knotsBaromVisibWave heightAir tempDewpointWater temp
2017-May-26 16:30N 37°57' E 023°35'0 0.0
2017-May-26 16:01N 37°57' E 023°35'0 0.0
2017-May-26 15:30N 37°57' E 023°35'0 0.0
2017-May-26 15:00N 37°57' E 023°35'0 0.0
2017-May-26 14:30N 37°57' E 023°35'0 0.0
2017-May-26 13:01N 37°57' E 023°35'1 1.2
2017-May-26 12:30N 37°58' E 023°35'0 0.0
2017-May-25 22:02N 37°58' E 023°35'0 0.0
2017-May-25 22:01N 37°58' E 023°35'1 1.8
2017-May-25 21:31N 37°57' E 023°36'0 0.0
2017-May-25 21:01N 37°57' E 023°36'0 0.0
2017-May-25 20:30N 37°57' E 023°36'0 0.0
2017-May-25 20:00N 37°57' E 023°36'0 0.0
2017-May-25 19:30N 37°57' E 023°36'0 0.0
2017-May-25 19:01N 37°57' E 023°36'0 0.0
2017-May-25 18:31N 37°57' E 023°36'0 0.7
2017-May-25 18:01N 37°57' E 023°36'1 2.1
2017-May-25 17:31N 37°58' E 023°35'0 0.0
2017-May-24 17:52N 37°58' E 023°35'1 3.3
2017-May-24 17:31N 37°57' E 023°33'3 5.9
2017-May-24 17:00N 38°00' E 023°34'2 4.3
2017-May-24 16:30N 38°02' E 023°36'0 0.1
2017-May-24 16:00N 38°02' E 023°36'0 0.0
2017-May-24 15:30N 38°02' E 023°36'0 0.0
2017-May-24 15:00N 38°02' E 023°36'0 0.0
2017-May-24 14:00N 38°02' E 023°36'0 0.0
2017-May-24 13:31N 38°02' E 023°36'0 0.0
2017-May-24 13:00N 38°02' E 023°36'0 0.1
2017-May-24 12:30N 38°02' E 023°36'2 3.1
2017-May-24 12:01N 38°01' E 023°34'3 6.8
2017-May-24 11:30N 37°57' E 023°34'2 3.4
2017-May-24 11:01N 37°57' E 023°36'0 0.0
2017-May-24 10:31N 37°57' E 023°36'0 0.0
2017-May-24 10:01N 37°57' E 023°36'0 0.0
2017-May-24 09:31N 37°57' E 023°36'0 0.0
2017-May-24 09:01N 37°57' E 023°36'0 0.0
2017-May-24 08:31N 37°57' E 023°36'0 0.0
2017-May-24 08:01N 37°57' E 023°36'0 0.0
2017-May-24 07:30N 37°57' E 023°36'0 0.1
2017-May-24 07:00N 37°57' E 023°36'1 1.8
2017-May-24 06:30N 37°58' E 023°35'0 0.0
2017-May-23 17:28N 37°58' E 023°35'2 4.7
2017-May-23 17:01N 37°56' E 023°37'1 2.2
2017-May-23 16:31N 37°56' E 023°38'0 0.0
2017-May-23 16:01N 37°56' E 023°38'0 0.0
2017-May-23 15:31N 37°56' E 023°38'0 0.0
2017-May-23 15:01N 37°56' E 023°38'0 0.0
2017-May-23 14:01N 37°56' E 023°38'0 0.0
2017-May-23 13:31N 37°56' E 023°38'0 0.0
2017-May-23 13:00N 37°56' E 023°38'0 0.0
2017-May-23 12:31N 37°56' E 023°38'1 2.6
2017-May-23 12:01N 37°56' E 023°37'2 3.8
2017-May-23 11:31N 37°58' E 023°35'0 0.0
2017-May-23 11:00N 37°58' E 023°35'0 0.0
2017-May-23 10:31N 37°58' E 023°35'0 0.0
2017-May-23 10:00N 37°58' E 023°35'0 0.0
2017-May-23 09:31N 37°58' E 023°35'0 0.0
2017-May-23 09:01N 37°58' E 023°35'0 0.0
2017-May-23 08:31N 37°58' E 023°35'0 0.0
2017-May-23 08:00N 37°58' E 023°35'0 0.0
2017-May-23 07:30N 37°58' E 023°35'0 0.0
2017-May-23 07:01N 37°58' E 023°35'0 0.0
2017-May-23 06:31N 37°58' E 023°35'0 0.0
2017-May-23 06:00N 37°58' E 023°35'0 0.0
2017-May-22 17:45N 37°58' E 023°35'1 3.1
2017-May-22 17:30N 37°57' E 023°35'1 1.1
2017-May-22 17:00N 37°57' E 023°36'0 0.0
2017-May-22 16:30N 37°57' E 023°36'0 0.0
2017-May-22 16:00N 37°57' E 023°36'0 0.0
2017-May-22 15:30N 37°57' E 023°36'0 0.0
2017-May-22 15:00N 37°57' E 023°36'0 0.0
2017-May-22 14:00N 37°57' E 023°36'0 0.0
2017-May-22 13:30N 37°57' E 023°36'0 0.4
2017-May-22 13:00N 37°57' E 023°36'1 2.0
2017-May-22 12:30N 37°58' E 023°35'0 0.0
2017-May-22 12:00N 37°58' E 023°35'0 0.0
2017-May-22 11:30N 37°58' E 023°35'0 0.0
2017-May-22 11:00N 37°58' E 023°35'0 0.0
2017-May-22 10:30N 37°58' E 023°35'0 0.0
2017-May-22 10:00N 37°58' E 023°35'1 1.5
2017-May-22 09:30N 37°57' E 023°35'3 7.0
2017-May-22 09:00N 37°54' E 023°33'1 2.3
2017-May-22 08:30N 37°53' E 023°33'0 0.0
2017-May-22 08:00N 37°53' E 023°33'0 0.1
2017-May-22 07:30N 37°53' E 023°33'0 0.1
2017-May-22 07:00N 37°53' E 023°33'0 0.0
2017-May-22 06:30N 37°53' E 023°33'0 0.1
2017-May-22 06:00N 37°53' E 023°33'0 0.0
2017-May-22 05:30N 37°53' E 023°33'0 0.2
2017-May-22 05:00N 37°52' E 023°33'3 5.7
2017-May-22 04:30N 37°55' E 023°34'3 5.1
2017-May-22 04:00N 37°58' E 023°35'0 0.0
2017-May-22 03:30N 37°58' E 023°35'0 0.0
2017-May-20 12:18N 37°58' E 023°35'1 2.3
2017-May-20 12:01N 37°57' E 023°34'3 5.4
2017-May-20 11:30N 38°00' E 023°33'3 5.5
2017-May-20 11:00N 38°02' E 023°36'0 0.1
2017-May-20 10:30N 38°02' E 023°36'0 0.0
2017-May-20 10:01N 38°02' E 023°36'0 0.0
2017-May-20 09:31N 38°02' E 023°36'0 0.0
2017-May-20 09:00N 38°02' E 023°36'0 0.0
2017-May-20 08:30N 38°02' E 023°36'0 0.0
2017-May-20 08:00N 38°02' E 023°36'0 0.0
2017-May-20 07:30N 38°02' E 023°36'0 0.5
2017-May-20 07:00N 38°02' E 023°35'4 7.1
2017-May-20 06:31N 37°59' E 023°33'2 3.3
2017-May-20 06:00N 37°57' E 023°34'0 0.6
2017-May-20 05:30N 37°58' E 023°35'0 0.0
2017-May-20 05:01N 37°58' E 023°35'0 0.0
2017-May-18 04:16N 37°58' E 023°35'0 1.6
2017-May-18 04:00N 37°57' E 023°35'2 4.8
2017-May-18 03:30N 37°55' E 023°34'0 0.1
2017-May-18 03:00N 37°55' E 023°34'0 0.1
2017-May-18 02:30N 37°55' E 023°34'0 0.0
2017-May-18 02:00N 37°55' E 023°34'0 0.0
2017-May-18 01:30N 37°55' E 023°34'0 0.0
2017-May-18 01:00N 37°55' E 023°34'0 0.1
2017-May-18 00:30N 37°55' E 023°34'0 0.0
2017-May-18 00:00N 37°55' E 023°34'0 0.1
2017-May-17 23:30N 37°55' E 023°34'0 0.0
2017-May-17 23:00N 37°55' E 023°34'0 0.0
2017-May-17 22:30N 37°55' E 023°34'0 0.1
2017-May-17 22:00N 37°55' E 023°34'0 0.3
2017-May-17 21:30N 37°55' E 023°34'3 5.2
2017-May-17 21:00N 37°57' E 023°35'0 0.3
2017-May-17 20:30N 37°58' E 023°35'0 0.0
2017-May-17 20:00N 37°58' E 023°35'0 0.0
2017-May-17 11:17N 37°58' E 023°35'1 3.8
2017-May-17 11:01N 37°57' E 023°35'2 3.8
2017-May-17 10:30N 37°55' E 023°34'0 0.1
2017-May-17 10:00N 37°55' E 023°34'0 0.2
2017-May-17 09:30N 37°55' E 023°33'0 0.6
2017-May-17 09:00N 37°55' E 023°34'2 4.8
2017-May-17 08:30N 37°57' E 023°34'0 0.6
2017-May-17 08:00N 37°58' E 023°35'  
Track history (hours):
 
Tides and Currents Weather Stations Pressure Air Temp Water Temp Dewpoint Dewpoint Depression Visibility Wind Speed Wind Dir Waves Ship Positions

Maria

Last reported at 2017-May-26 16:30 UTC. Time now 2017-May-26 16:53 UTC.
Position N 37°57' E 023°35'.

Length 74 m; draft 4.5 m.

Type: Ship. MMSI: 237493000.

Date/timePositionNaut miles runAvg speedWind from/ knotsBaromVisibWave heightAir tempDewpointWater temp
2017-May-26 16:30N 37°57' E 023°35'0 0.0
2017-May-26 16:01N 37°57' E 023°35'0 0.0
2017-May-26 15:30N 37°57' E 023°35'0 0.0
2017-May-26 15:00N 37°57' E 023°35'0 0.0
2017-May-26 14:30N 37°57' E 023°35'0 0.0
2017-May-26 13:01N 37°57' E 023°35'1 1.2
2017-May-26 12:30N 37°58' E 023°35'0 0.0
2017-May-25 22:02N 37°58' E 023°35'0 0.0
2017-May-25 22:01N 37°58' E 023°35'1 1.8
2017-May-25 21:31N 37°57' E 023°36'0 0.0
2017-May-25 21:01N 37°57' E 023°36'0 0.0
2017-May-25 20:30N 37°57' E 023°36'0 0.0
2017-May-25 20:00N 37°57' E 023°36'0 0.0
2017-May-25 19:30N 37°57' E 023°36'0 0.0
2017-May-25 19:01N 37°57' E 023°36'0 0.0
2017-May-25 18:31N 37°57' E 023°36'0 0.7
2017-May-25 18:01N 37°57' E 023°36'1 2.1
2017-May-25 17:31N 37°58' E 023°35'0 0.0
2017-May-24 17:52N 37°58' E 023°35'1 3.3
2017-May-24 17:31N 37°57' E 023°33'3 5.9
2017-May-24 17:00N 38°00' E 023°34'2 4.3
2017-May-24 16:30N 38°02' E 023°36'0 0.1
2017-May-24 16:00N 38°02' E 023°36'0 0.0
2017-May-24 15:30N 38°02' E 023°36'0 0.0
2017-May-24 15:00N 38°02' E 023°36'0 0.0
2017-May-24 14:00N 38°02' E 023°36'0 0.0
2017-May-24 13:31N 38°02' E 023°36'0 0.0
2017-May-24 13:00N 38°02' E 023°36'0 0.1
2017-May-24 12:30N 38°02' E 023°36'2 3.1
2017-May-24 12:01N 38°01' E 023°34'3 6.8
2017-May-24 11:30N 37°57' E 023°34'2 3.4
2017-May-24 11:01N 37°57' E 023°36'0 0.0
2017-May-24 10:31N 37°57' E 023°36'0 0.0
2017-May-24 10:01N 37°57' E 023°36'0 0.0
2017-May-24 09:31N 37°57' E 023°36'0 0.0
2017-May-24 09:01N 37°57' E 023°36'0 0.0
2017-May-24 08:31N 37°57' E 023°36'0 0.0
2017-May-24 08:01N 37°57' E 023°36'0 0.0
2017-May-24 07:30N 37°57' E 023°36'0 0.1
2017-May-24 07:00N 37°57' E 023°36'1 1.8
2017-May-24 06:30N 37°58' E 023°35'0 0.0
2017-May-23 17:28N 37°58' E 023°35'2 4.7
2017-May-23 17:01N 37°56' E 023°37'1 2.2
2017-May-23 16:31N 37°56' E 023°38'0 0.0
2017-May-23 16:01N 37°56' E 023°38'0 0.0
2017-May-23 15:31N 37°56' E 023°38'0 0.0
2017-May-23 15:01N 37°56' E 023°38'0 0.0
2017-May-23 14:01N 37°56' E 023°38'0 0.0
2017-May-23 13:31N 37°56' E 023°38'0 0.0
2017-May-23 13:00N 37°56' E 023°38'0 0.0
2017-May-23 12:31N 37°56' E 023°38'1 2.6
2017-May-23 12:01N 37°56' E 023°37'2 3.8
2017-May-23 11:31N 37°58' E 023°35'0 0.0
2017-May-23 11:00N 37°58' E 023°35'0 0.0
2017-May-23 10:31N 37°58' E 023°35'0 0.0
2017-May-23 10:00N 37°58' E 023°35'0 0.0
2017-May-23 09:31N 37°58' E 023°35'0 0.0
2017-May-23 09:01N 37°58' E 023°35'0 0.0
2017-May-23 08:31N 37°58' E 023°35'0 0.0
2017-May-23 08:00N 37°58' E 023°35'0 0.0
2017-May-23 07:30N 37°58' E 023°35'0 0.0
2017-May-23 07:01N 37°58' E 023°35'0 0.0
2017-May-23 06:31N 37°58' E 023°35'0 0.0
2017-May-23 06:00N 37°58' E 023°35'0 0.0
2017-May-22 17:45N 37°58' E 023°35'1 3.1
2017-May-22 17:30N 37°57' E 023°35'1 1.1
2017-May-22 17:00N 37°57' E 023°36'0 0.0
2017-May-22 16:30N 37°57' E 023°36'0 0.0
2017-May-22 16:00N 37°57' E 023°36'0 0.0
2017-May-22 15:30N 37°57' E 023°36'0 0.0
2017-May-22 15:00N 37°57' E 023°36'0 0.0
2017-May-22 14:00N 37°57' E 023°36'0 0.0
2017-May-22 13:30N 37°57' E 023°36'0 0.4
2017-May-22 13:00N 37°57' E 023°36'1 2.0
2017-May-22 12:30N 37°58' E 023°35'0 0.0
2017-May-22 12:00N 37°58' E 023°35'0 0.0
2017-May-22 11:30N 37°58' E 023°35'0 0.0
2017-May-22 11:00N 37°58' E 023°35'0 0.0
2017-May-22 10:30N 37°58' E 023°35'0 0.0
2017-May-22 10:00N 37°58' E 023°35'1 1.5
2017-May-22 09:30N 37°57' E 023°35'3 7.0
2017-May-22 09:00N 37°54' E 023°33'1 2.3
2017-May-22 08:30N 37°53' E 023°33'0 0.0
2017-May-22 08:00N 37°53' E 023°33'0 0.1
2017-May-22 07:30N 37°53' E 023°33'0 0.1
2017-May-22 07:00N 37°53' E 023°33'0 0.0
2017-May-22 06:30N 37°53' E 023°33'0 0.1
2017-May-22 06:00N 37°53' E 023°33'0 0.0
2017-May-22 05:30N 37°53' E 023°33'0 0.2
2017-May-22 05:00N 37°52' E 023°33'3 5.7
2017-May-22 04:30N 37°55' E 023°34'3 5.1
2017-May-22 04:00N 37°58' E 023°35'0 0.0
2017-May-22 03:30N 37°58' E 023°35'0 0.0
2017-May-20 12:18N 37°58' E 023°35'1 2.3
2017-May-20 12:01N 37°57' E 023°34'3 5.4
2017-May-20 11:30N 38°00' E 023°33'3 5.5
2017-May-20 11:00N 38°02' E 023°36'0 0.1
2017-May-20 10:30N 38°02' E 023°36'0 0.0
2017-May-20 10:01N 38°02' E 023°36'0 0.0
2017-May-20 09:31N 38°02' E 023°36'0 0.0
2017-May-20 09:00N 38°02' E 023°36'0 0.0
2017-May-20 08:30N 38°02' E 023°36'0 0.0
2017-May-20 08:00N 38°02' E 023°36'0 0.0
2017-May-20 07:30N 38°02' E 023°36'0 0.5
2017-May-20 07:00N 38°02' E 023°35'4 7.1
2017-May-20 06:31N 37°59' E 023°33'2 3.3
2017-May-20 06:00N 37°57' E 023°34'0 0.6
2017-May-20 05:30N 37°58' E 023°35'0 0.0
2017-May-20 05:01N 37°58' E 023°35'0 0.0
2017-May-18 04:16N 37°58' E 023°35'0 1.6
2017-May-18 04:00N 37°57' E 023°35'2 4.8
2017-May-18 03:30N 37°55' E 023°34'0 0.1
2017-May-18 03:00N 37°55' E 023°34'0 0.1
2017-May-18 02:30N 37°55' E 023°34'0 0.0
2017-May-18 02:00N 37°55' E 023°34'0 0.0
2017-May-18 01:30N 37°55' E 023°34'0 0.0
2017-May-18 01:00N 37°55' E 023°34'0 0.1
2017-May-18 00:30N 37°55' E 023°34'0 0.0
2017-May-18 00:00N 37°55' E 023°34'0 0.1
2017-May-17 23:30N 37°55' E 023°34'0 0.0
2017-May-17 23:00N 37°55' E 023°34'0 0.0
2017-May-17 22:30N 37°55' E 023°34'0 0.1
2017-May-17 22:00N 37°55' E 023°34'0 0.3
2017-May-17 21:30N 37°55' E 023°34'3 5.2
2017-May-17 21:00N 37°57' E 023°35'0 0.3
2017-May-17 20:30N 37°58' E 023°35'0 0.0
2017-May-17 20:00N 37°58' E 023°35'0 0.0
2017-May-17 11:17N 37°58' E 023°35'1 3.8
2017-May-17 11:01N 37°57' E 023°35'2 3.8
2017-May-17 10:30N 37°55' E 023°34'0 0.1
2017-May-17 10:00N 37°55' E 023°34'0 0.2
2017-May-17 09:30N 37°55' E 023°33'0 0.6
2017-May-17 09:00N 37°55' E 023°34'2 4.8
2017-May-17 08:30N 37°57' E 023°34'0 0.6
2017-May-17 08:00N 37°58' E 023°35'  

Dump ship's entire track history